createdAt,value
2023-04-21T00:02:27.298Z,8.87
2023-04-21T00:04:56.506Z,8.60
2023-04-21T00:07:24.794Z,8.47
2023-04-21T00:09:52.682Z,8.20
2023-04-21T00:12:20.844Z,8.60
2023-04-21T00:14:48.746Z,7.73
2023-04-21T00:17:18.007Z,8.07
2023-04-21T00:19:45.900Z,8.57
2023-04-21T00:22:14.994Z,8.17
2023-04-21T00:24:42.882Z,7.47
2023-04-21T00:27:11.441Z,7.00
2023-04-21T00:29:40.360Z,7.60
2023-04-21T00:32:10.110Z,7.30
2023-04-21T00:34:39.381Z,8.30
2023-04-21T00:37:07.242Z,7.10
2023-04-21T00:39:35.135Z,7.33
2023-04-21T00:42:03.028Z,7.40
2023-04-21T00:44:31.040Z,7.30
2023-04-21T00:46:59.030Z,7.60
2023-04-21T00:49:26.995Z,7.77
2023-04-21T00:51:56.613Z,7.83
2023-04-21T00:54:26.148Z,6.87
2023-04-21T00:56:54.830Z,6.90
2023-04-21T00:59:22.737Z,7.20
2023-04-21T01:01:50.747Z,7.47
2023-04-21T01:04:18.718Z,7.43
2023-04-21T01:06:46.944Z,7.60
2023-04-21T01:09:16.500Z,6.83
2023-04-21T01:12:01.419Z,7.23
2023-04-21T01:14:29.262Z,7.63
2023-04-21T01:16:57.650Z,7.47
2023-04-21T01:19:26.115Z,7.17
2023-04-21T01:21:57.707Z,7.70
2023-04-21T01:24:25.786Z,7.57
2023-04-21T01:26:53.644Z,7.67
2023-04-21T01:29:21.545Z,7.43
2023-04-21T01:31:49.501Z,7.30
2023-04-21T01:34:17.472Z,8.00
2023-04-21T01:36:45.312Z,7.63
2023-04-21T01:39:14.634Z,8.40
2023-04-21T01:41:42.542Z,7.70
2023-04-21T01:44:10.460Z,7.77
2023-04-21T01:46:38.556Z,6.97
2023-04-21T01:49:06.441Z,7.60
2023-04-21T01:51:34.392Z,7.50
2023-04-21T01:54:02.329Z,8.07
2023-04-21T01:56:31.658Z,7.77
2023-04-21T01:58:59.549Z,8.00
2023-04-21T02:01:27.841Z,7.57
2023-04-21T02:03:55.838Z,6.63
2023-04-21T02:06:23.861Z,6.73
2023-04-21T02:08:51.757Z,7.23
2023-04-21T02:11:19.640Z,7.17
2023-04-21T02:13:48.843Z,7.13
2023-04-21T02:16:16.809Z,6.73
2023-04-21T02:18:44.743Z,6.33
2023-04-21T02:21:12.809Z,6.77
2023-04-21T02:23:40.730Z,6.60
2023-04-21T02:26:08.792Z,6.33
2023-04-21T02:28:36.688Z,6.47
2023-04-21T02:31:06.171Z,6.07
2023-04-21T02:33:34.222Z,6.17
2023-04-21T02:36:02.163Z,6.27
2023-04-21T02:38:30.272Z,6.57
2023-04-21T02:40:58.205Z,6.87
2023-04-21T02:43:26.720Z,6.50
2023-04-21T02:45:55.431Z,7.17
2023-04-21T02:48:24.637Z,6.83
2023-04-21T02:50:53.578Z,6.77
2023-04-21T02:53:21.678Z,6.20
2023-04-21T02:55:50.246Z,7.40
2023-04-21T02:58:18.372Z,6.80
2023-04-21T03:00:46.335Z,6.30
2023-04-21T03:03:16.313Z,6.70
2023-04-21T03:05:45.711Z,6.50
2023-04-21T03:08:13.660Z,5.47
2023-04-21T03:10:41.734Z,6.80
2023-04-21T03:13:09.662Z,5.67
2023-04-21T03:15:37.510Z,6.50
2023-04-21T03:18:05.767Z,6.27
2023-04-21T03:20:33.735Z,6.47
2023-04-21T03:23:03.035Z,6.10
2023-04-21T03:25:30.964Z,6.27
2023-04-21T03:27:58.904Z,6.80
2023-04-21T03:30:26.980Z,5.37
2023-04-21T03:32:55.516Z,5.83
2023-04-21T03:35:23.465Z,5.80
2023-04-21T03:37:51.389Z,6.03
2023-04-21T03:40:20.638Z,6.67
2023-04-21T03:42:48.509Z,6.03
2023-04-21T03:45:16.386Z,6.60
2023-04-21T03:47:44.330Z,6.47
2023-04-21T03:50:12.306Z,6.40
2023-04-21T03:52:40.459Z,6.63
2023-04-21T03:55:11.662Z,5.70
2023-04-21T03:57:41.951Z,6.30
2023-04-21T04:00:11.288Z,6.70
2023-04-21T04:02:39.469Z,6.67
2023-04-21T04:05:08.728Z,6.70
2023-04-21T04:07:36.828Z,5.47
2023-04-21T04:10:04.994Z,6.23
2023-04-21T04:12:32.864Z,13.70
2023-04-21T04:15:02.732Z,8.73
2023-04-21T04:17:30.622Z,6.23
2023-04-21T04:19:58.537Z,5.87
2023-04-21T04:22:26.536Z,6.07
2023-04-21T04:24:55.312Z,5.27
2023-04-21T04:27:23.187Z,6.17
2023-04-21T04:29:51.072Z,4.60
2023-04-21T04:32:20.773Z,5.80
2023-04-21T04:34:48.677Z,6.10
2023-04-21T04:37:16.637Z,9.53
2023-04-21T04:39:44.531Z,8.20
2023-04-21T04:42:12.555Z,5.90
2023-04-21T04:44:41.562Z,5.27
2023-04-21T04:47:09.566Z,6.40
2023-04-21T04:49:38.826Z,6.33
2023-04-21T04:52:07.057Z,6.23
2023-04-21T04:54:34.985Z,5.93
2023-04-21T04:57:03.451Z,17.93
2023-04-21T04:59:31.570Z,17.57
2023-04-21T05:01:59.514Z,8.50
2023-04-21T05:04:27.881Z,6.00
2023-04-21T05:06:57.405Z,6.20
2023-04-21T05:09:25.855Z,6.37
2023-04-21T05:11:53.768Z,6.47
2023-04-21T05:14:21.796Z,6.73
2023-04-21T05:16:49.873Z,6.63
2023-04-21T05:19:18.874Z,6.40
2023-04-21T05:21:46.822Z,7.43
2023-04-21T05:24:16.100Z,7.50
2023-04-21T05:26:43.982Z,6.20
2023-04-21T05:29:11.817Z,6.80
2023-04-21T05:31:40.011Z,8.03
2023-04-21T05:34:07.942Z,9.10
2023-04-21T05:36:35.870Z,7.10
2023-04-21T05:39:03.775Z,7.23
2023-04-21T05:41:33.032Z,7.57
2023-04-21T05:44:00.937Z,7.50
2023-04-21T05:46:30.190Z,6.97
2023-04-21T05:48:58.216Z,7.17
2023-04-21T05:51:27.125Z,6.93
2023-04-21T05:53:55.122Z,6.83
2023-04-21T05:56:23.186Z,6.80
2023-04-21T05:58:52.428Z,5.90
2023-04-21T06:01:20.602Z,6.83
2023-04-21T06:03:50.365Z,8.00
2023-04-21T06:06:18.815Z,7.43
2023-04-21T06:08:46.700Z,7.93
2023-04-21T06:11:14.661Z,7.17
2023-04-21T06:13:43.646Z,7.73
2023-04-21T06:16:13.136Z,10.57
2023-04-21T06:18:41.118Z,8.43
2023-04-21T06:21:09.314Z,7.37
2023-04-21T06:23:37.188Z,6.80
2023-04-21T06:26:06.945Z,7.07
2023-04-21T06:28:36.540Z,7.37
2023-04-21T06:31:08.498Z,6.73
2023-04-21T06:33:38.235Z,6.43
2023-04-21T06:36:07.041Z,6.70
2023-04-21T06:38:34.978Z,6.57
2023-04-21T06:41:04.508Z,7.13
2023-04-21T06:43:32.501Z,6.23
2023-04-21T06:46:00.640Z,6.90
2023-04-21T06:48:30.129Z,7.13
2023-04-21T06:51:00.539Z,7.43
2023-04-21T06:53:28.472Z,7.93
2023-04-21T06:55:56.396Z,7.20
2023-04-21T06:58:24.455Z,6.80
2023-04-21T07:00:52.346Z,7.43
2023-04-21T07:03:20.358Z,6.83
2023-04-21T07:05:48.485Z,7.10
2023-04-21T07:08:17.806Z,12.47
2023-04-21T07:10:46.144Z,9.27
2023-04-21T07:13:15.899Z,8.20
2023-04-21T07:15:46.851Z,7.77
2023-04-21T07:18:15.004Z,7.93
2023-04-21T07:20:43.116Z,7.33
2023-04-21T07:23:11.030Z,7.30
2023-04-21T07:25:40.306Z,7.87
2023-04-21T07:28:08.174Z,6.87
2023-04-21T07:30:39.160Z,7.37
2023-04-21T07:33:07.216Z,7.50
2023-04-21T07:35:35.223Z,6.90
2023-04-21T07:38:03.133Z,7.80
2023-04-21T07:40:31.808Z,7.70
2023-04-21T07:43:01.087Z,8.47
2023-04-21T07:45:29.019Z,8.03
2023-04-21T07:47:57.202Z,6.93
2023-04-21T07:50:25.178Z,7.67
2023-04-21T07:52:53.156Z,7.53
2023-04-21T07:55:21.217Z,12.90
2023-04-21T07:57:49.128Z,11.13
2023-04-21T08:00:19.221Z,8.17
2023-04-21T08:02:47.274Z,7.13
2023-04-21T08:05:15.345Z,7.30
2023-04-21T08:07:43.301Z,7.80
2023-04-21T08:10:12.108Z,7.03
2023-04-21T08:12:40.094Z,7.00
2023-04-21T08:15:08.894Z,6.73
2023-04-21T08:17:40.571Z,6.20
2023-04-21T08:20:09.970Z,5.53
2023-04-21T08:22:38.023Z,6.47
2023-04-21T08:25:07.167Z,6.07
2023-04-21T08:27:35.352Z,6.30
2023-04-21T08:30:03.381Z,6.10
2023-04-21T08:32:31.310Z,6.03
2023-04-21T08:35:00.690Z,5.80
2023-04-21T08:37:29.210Z,5.93
2023-04-21T08:39:57.144Z,5.63
2023-04-21T08:42:25.052Z,5.00
2023-04-21T08:44:52.985Z,5.30
2023-04-21T08:47:22.659Z,5.67
2023-04-21T08:49:54.251Z,4.63
2023-04-21T08:52:23.545Z,4.53
2023-04-21T08:54:53.156Z,3.67
2023-04-21T08:57:21.093Z,3.93
2023-04-21T08:59:49.057Z,4.53
2023-04-21T09:02:18.714Z,4.30
2023-04-21T09:04:48.750Z,7.67
2023-04-21T09:07:33.329Z,4.80
2023-04-21T09:10:01.969Z,4.10
2023-04-21T09:12:30.765Z,4.40
2023-04-21T09:14:59.124Z,4.90
2023-04-21T09:17:32.459Z,4.80
2023-04-21T09:20:14.601Z,5.10
2023-04-21T09:22:44.495Z,5.13
2023-04-21T09:25:16.575Z,4.97
2023-04-21T09:27:44.824Z,5.37
2023-04-21T09:30:13.308Z,4.90
2023-04-21T09:32:42.133Z,5.00
2023-04-21T09:35:11.761Z,4.63
2023-04-21T09:37:40.495Z,5.00
2023-04-21T09:40:13.826Z,4.67
2023-04-21T09:42:44.769Z,6.17
2023-04-21T09:47:48.257Z,4.80
2023-04-21T09:50:20.639Z,4.83
2023-04-21T09:52:58.050Z,3.93
2023-04-21T09:55:30.712Z,4.03
2023-04-21T09:58:00.532Z,4.60
2023-04-21T10:00:31.043Z,4.90
2023-04-21T10:03:05.401Z,4.03
2023-04-21T10:05:33.628Z,4.40
2023-04-21T10:08:01.614Z,4.43
2023-04-21T10:10:31.862Z,4.55
2023-04-21T10:15:33.254Z,4.50
2023-04-21T10:23:28.210Z,5.60
2023-04-21T10:28:53.187Z,4.20
2023-04-21T10:39:27.346Z,3.60
2023-04-21T11:04:45.284Z,4.00
2023-04-21T11:34:31.354Z,4.23
2023-04-21T11:39:27.012Z,4.30
